Time,TemperatureF,DewpointF,PressureIn,WindDirection,WindDirectionDegrees,WindSpeedMPH,WindSpeedGustMPH,Humidity,HourlyPrecipIn,Conditions,Clouds,dailyrainin,SoftwareType,DateUTC
2013-05-25 00:01:00,61.7,49.9,30.14,North,355,9.5,12.7,65,0.00, ,,-99.99,VWS V12.07,2013-05-25 04:01:00,
2013-05-25 00:02:00,61.4,49.1,30.14,NNW,327,9.0,13.9,64,0.00, ,,-99.99,VWS V12.07,2013-05-25 04:02:00,
2013-05-25 00:04:00,61.1,48.9,30.14,NNW,329,11.2,13.9,64,0.00, ,,-99.99,VWS V12.07,2013-05-25 04:04:00,
2013-05-25 00:07:00,61.7,49.7,30.14,NNW,327,7.6,14.8,65,0.00, ,,-99.99,VWS V12.07,2013-05-25 04:07:00,
2013-05-25 00:12:00,61.5,50.2,30.14,NW,322,13.9,15.8,66,0.00, ,,-99.99,VWS V12.07,2013-05-25 04:12:00,
2013-05-25 00:15:00,61.4,49.9,30.15,NW,310,10.3,17.2,66,0.00, ,,-99.99,VWS V12.07,2013-05-25 04:15:00,
2013-05-25 00:20:00,61.5,49.3,30.14,NW,325,13.0,16.3,64,0.00, ,,-99.99,VWS V12.07,2013-05-25 04:20:00,
2013-05-25 00:25:00,61.7,49.2,30.15,NW,326,17.0,21.7,64,0.00, ,,-99.99,VWS V12.07,2013-05-25 04:25:00,
2013-05-25 00:30:00,60.9,47.6,30.15,NNW,336,12.4,21.7,62,0.00, ,,-99.99,VWS V12.07,2013-05-25 04:30:00,
2013-05-25 00:35:00,61.0,48.9,30.15,NW,322,13.7,21.7,64,0.00, ,,-99.99,VWS V12.07,2013-05-25 04:35:00,
2013-05-25 00:40:00,60.5,46.5,30.15,NNW,330,19.8,21.1,60,0.00, ,,-99.99,VWS V12.07,2013-05-25 04:40:00,
2013-05-25 00:45:00,61.0,47.9,30.15,NNW,336,16.9,21.1,62,0.00, ,,-99.99,VWS V12.07,2013-05-25 04:45:00,
2013-05-25 00:50:00,61.2,48.1,30.14,NW,326,14.2,21.1,62,0.00, ,,-99.99,VWS V12.07,2013-05-25 04:50:00,
2013-05-25 00:55:00,60.7,47.2,30.14,NNW,336,15.6,21.1,61,0.00, ,,-99.99,VWS V12.07,2013-05-25 04:55:00,
2013-05-25 01:00:00,60.8,48.1,30.14,NW,318,14.4,21.1,63,0.00, ,,-99.99,VWS V12.07,2013-05-25 05:00:00,
2013-05-25 01:05:00,60.7,47.8,30.14,NNW,329,13.2,21.1,62,0.00, ,,-99.99,VWS V12.07,2013-05-25 05:05:00,
2013-05-25 01:10:00,60.3,48.1,30.14,NW,323,10.3,21.1,64,0.00, ,,-99.99,VWS V12.07,2013-05-25 05:10:00,
2013-05-25 01:15:00,60.6,49.3,30.15,WNW,289,9.6,21.1,66,0.00, ,,-99.99,VWS V12.07,2013-05-25 05:15:00,
2013-05-25 01:20:00,60.3,48.9,30.15,NNW,333,12.6,19.6,66,0.00, ,,-99.99,VWS V12.07,2013-05-25 05:20:00,
2013-05-25 01:25:00,59.8,48.6,30.15,WNW,295,16.5,19.6,66,0.00, ,,-99.99,VWS V12.07,2013-05-25 05:25:00,
2013-05-25 01:30:00,59.7,49.7,30.15,NNW,329,14.0,19.6,69,0.00, ,,-99.99,VWS V12.07,2013-05-25 05:30:00,
2013-05-25 01:35:00,59.6,49.5,30.15,NNW,348,10.9,19.6,69,0.00, ,,-99.99,VWS V12.07,2013-05-25 05:35:00,
2013-05-25 01:40:00,59.9,51.2,30.15,NNW,332,12.0,17.4,73,0.00, ,,-99.99,VWS V12.07,2013-05-25 05:40:00,
2013-05-25 01:45:00,59.4,50.3,30.15,NNW,344,11.7,18.3,72,0.00, ,,-99.99,VWS V12.07,2013-05-25 05:45:00,
2013-05-25 01:50:00,59.9,52.1,30.15,NNW,330,13.8,18.3,75,0.00, ,,-99.99,VWS V12.07,2013-05-25 05:50:00,
2013-05-25 01:55:00,59.6,52.4,30.15,NNW,336,17.7,19.4,77,0.00, ,,-99.99,VWS V12.07,2013-05-25 05:55:00,
2013-05-25 02:00:00,59.4,52.7,30.14,North,354,13.0,19.3,78,0.00, ,,-99.99,VWS V12.07,2013-05-25 06:00:00,
2013-05-25 02:05:00,59.4,52.6,30.14,NNW,336,13.9,19.4,78,0.00, ,,-99.99,VWS V12.07,2013-05-25 06:05:00,
2013-05-25 02:10:00,59.1,52.5,30.15,NNW,336,14.9,19.4,79,0.00, ,,-99.99,VWS V12.07,2013-05-25 06:10:00,
2013-05-25 02:15:00,59.3,52.8,30.15,NNW,341,13.5,19.4,79,0.00, ,,-99.99,VWS V12.07,2013-05-25 06:15:00,
2013-05-25 02:20:00,59.3,53.0,30.15,NNW,348,10.9,17.3,80,0.00, ,,-99.99,VWS V12.07,2013-05-25 06:20:00,
2013-05-25 02:25:00,59.4,53.5,30.15,NNW,341,11.1,19.0,81,0.00, ,,-99.99,VWS V12.07,2013-05-25 06:25:00,
2013-05-25 02:30:00,59.1,52.1,30.15,NNW,336,13.8,19.0,78,0.00, ,,-99.99,VWS V12.07,2013-05-25 06:30:00,
2013-05-25 02:35:00,58.7,51.0,30.14,NW,318,11.7,19.1,75,0.00, ,,-99.99,VWS V12.07,2013-05-25 06:35:00,
2013-05-25 02:40:00,59.0,51.6,30.15,NNW,343,13.7,17.8,76,0.00, ,,-99.99,VWS V12.07,2013-05-25 06:40:00,
2013-05-25 02:45:00,59.4,52.1,30.15,North,7,8.5,18.3,77,0.00, ,,-99.99,VWS V12.07,2013-05-25 06:45:00,
2013-05-25 02:50:00,59.1,51.5,30.15,NNW,340,13.9,19.1,76,0.00, ,,-99.99,VWS V12.07,2013-05-25 06:50:00,
2013-05-25 02:55:00,59.4,51.3,30.15,North,353,12.9,19.1,75,0.00, ,,-99.99,VWS V12.07,2013-05-25 06:55:00,
2013-05-25 03:01:00,58.7,50.1,30.15,NW,323,8.5,18.5,73,0.00, ,,-99.99,VWS V12.07,2013-05-25 07:01:00,
2013-05-25 03:06:00,59.2,51.2,30.14,NNW,340,16.1,18.5,75,0.00, ,,-99.99,VWS V12.07,2013-05-25 07:06:00,
2013-05-25 03:11:00,58.7,49.9,30.14,NNW,343,15.0,18.5,73,0.00, ,,-99.99,VWS V12.07,2013-05-25 07:11:00,
2013-05-25 03:16:00,58.9,50.5,30.15,NNW,330,12.0,13.2,74,0.00, ,,-99.99,VWS V12.07,2013-05-25 07:16:00,
2013-05-25 03:21:00,58.4,49.8,30.15,NNW,329,9.1,17.6,73,0.00, ,,-99.99,VWS V12.07,2013-05-25 07:21:00,
2013-05-25 03:26:00,58.0,48.7,30.15,NNW,341,14.9,18.5,71,0.00, ,,-99.99,VWS V12.07,2013-05-25 07:26:00,
2013-05-25 03:31:00,58.1,49.8,30.15,NNW,330,14.9,20.0,74,0.00, ,,-99.99,VWS V12.07,2013-05-25 07:31:00,
2013-05-25 03:36:00,58.4,49.8,30.15,NNW,344,12.1,15.1,73,0.00, ,,-99.99,VWS V12.07,2013-05-25 07:36:00,
2013-05-25 03:41:00,57.9,49.5,30.15,NNW,337,18.3,20.0,74,0.00, ,,-99.99,VWS V12.07,2013-05-25 07:41:00,
2013-05-25 03:46:00,57.8,49.3,30.15,North,353,10.9,20.1,73,0.00, ,,-99.99,VWS V12.07,2013-05-25 07:46:00,
2013-05-25 03:51:00,57.2,48.8,30.15,North,357,12.7,21.7,73,0.00, ,,-99.99,VWS V12.07,2013-05-25 07:51:00,
2013-05-25 03:56:00,57.1,49.2,30.15,NNW,337,15.8,15.8,75,0.00, ,,-99.99,VWS V12.07,2013-05-25 07:56:00,
2013-05-25 04:01:00,57.3,49.7,30.15,North,350,8.6,21.7,76,0.00, ,,-99.99,VWS V12.07,2013-05-25 08:01:00,
2013-05-25 04:06:00,57.1,49.5,30.16,North,351,13.9,21.7,76,0.00, ,,-99.99,VWS V12.07,2013-05-25 08:06:00,
2013-05-25 04:11:00,57.0,49.8,30.16,NNW,341,14.1,21.7,77,0.00, ,,-99.99,VWS V12.07,2013-05-25 08:11:00,
2013-05-25 04:16:00,56.6,49.8,30.16,NNW,341,14.5,15.3,78,0.00, ,,-99.99,VWS V12.07,2013-05-25 08:16:00,
2013-05-25 04:21:00,56.2,48.9,30.16,NNW,343,15.4,23.2,76,0.00, ,,-99.99,VWS V12.07,2013-05-25 08:21:00,
2013-05-25 04:26:00,56.3,48.8,30.17,North,354,12.3,23.2,76,0.00, ,,-99.99,VWS V12.07,2013-05-25 08:26:00,
2013-05-25 04:31:00,55.8,47.5,30.18,NNW,347,13.9,23.2,74,0.00, ,,-99.99,VWS V12.07,2013-05-25 08:31:00,
2013-05-25 04:36:00,55.7,47.0,30.18,NNW,329,14.9,17.9,73,0.00, ,,-99.99,VWS V12.07,2013-05-25 08:36:00,
2013-05-25 04:41:00,55.9,46.6,30.18,WNW,288,11.9,20.4,71,0.00, ,,-99.99,VWS V12.07,2013-05-25 08:41:00,
2013-05-25 04:46:00,55.6,46.3,30.18,NNW,337,17.1,21.2,71,0.00, ,,-99.99,VWS V12.07,2013-05-25 08:46:00,
2013-05-25 04:51:00,55.4,45.2,30.18,NNW,333,14.2,22.8,68,0.00, ,,-99.99,VWS V12.07,2013-05-25 08:51:00,
2013-05-25 04:56:00,56.0,46.5,30.18,NNW,332,13.7,15.7,70,0.00, ,,-99.99,VWS V12.07,2013-05-25 08:56:00,
2013-05-25 05:01:00,55.2,45.0,30.18,NNW,327,15.6,19.7,68,0.00, ,,-99.99,VWS V12.07,2013-05-25 09:01:00,
2013-05-25 05:06:00,55.3,45.7,30.18,NW,323,14.5,21.3,70,0.00, ,,-99.99,VWS V12.07,2013-05-25 09:06:00,
2013-05-25 05:11:00,55.0,45.2,30.19,North,351,14.7,21.8,69,0.00, ,,-99.99,VWS V12.07,2013-05-25 09:11:00,
2013-05-25 05:16:00,54.8,45.0,30.19,NNW,337,17.0,17.0,69,0.00, ,,-99.99,VWS V12.07,2013-05-25 09:16:00,
2013-05-25 05:21:00,54.5,45.4,30.19,NNW,339,12.6,21.2,71,0.00, ,,-99.99,VWS V12.07,2013-05-25 09:21:00,
2013-05-25 05:26:00,54.4,44.6,30.19,NNW,348,17.5,21.6,69,0.00, ,,-99.99,VWS V12.07,2013-05-25 09:26:00,
2013-05-25 05:31:00,53.9,44.3,30.20,North,353,15.2,21.7,70,0.00, ,,-99.99,VWS V12.07,2013-05-25 09:31:00,
2013-05-25 05:36:00,54.1,44.7,30.20,North,358,11.7,15.2,70,0.00, ,,-99.99,VWS V12.07,2013-05-25 09:36:00,
2013-05-25 05:41:00,54.1,43.7,30.20,NNW,343,16.9,21.9,68,0.00, ,,-99.99,VWS V12.07,2013-05-25 09:41:00,
2013-05-25 05:46:00,54.2,44.6,30.20,NNW,333,15.2,21.9,70,0.00, ,,-99.99,VWS V12.07,2013-05-25 09:46:00,
2013-05-25 05:51:00,53.6,44.9,30.20,NNW,341,7.8,22.3,72,0.00, ,,-99.99,VWS V12.07,2013-05-25 09:51:00,
2013-05-25 05:56:00,53.5,44.0,30.20,North,353,16.0,18.5,70,0.00, ,,-99.99,VWS V12.07,2013-05-25 09:56:00,
2013-05-25 06:01:00,53.9,45.3,30.21,NNW,337,14.5,21.2,72,0.00, ,,-99.99,VWS V12.07,2013-05-25 10:01:00,
2013-05-25 06:06:00,53.4,44.0,30.21,North,1,9.0,22.7,70,0.00, ,,-99.99,VWS V12.07,2013-05-25 10:06:00,
2013-05-25 06:11:00,53.4,44.1,30.21,NNW,332,6.3,22.7,71,0.00, ,,-99.99,VWS V12.07,2013-05-25 10:11:00,
2013-05-25 06:16:00,53.5,43.9,30.21,NNW,346,17.1,18.6,70,0.00, ,,-99.99,VWS V12.07,2013-05-25 10:16:00,
2013-05-25 06:21:00,53.8,45.4,30.22,NNW,333,10.7,21.9,73,0.00, ,,-99.99,VWS V12.07,2013-05-25 10:21:00,
2013-05-25 06:26:00,53.6,44.5,30.22,North,351,17.8,21.9,71,0.00, ,,-99.99,VWS V12.07,2013-05-25 10:26:00,
2013-05-25 06:31:00,53.7,45.5,30.22,NNW,341,21.6,23.9,74,0.00, ,,-99.99,VWS V12.07,2013-05-25 10:31:00,
2013-05-25 06:36:00,53.4,44.2,30.23,North,351,13.9,17.0,71,0.00, ,,-99.99,VWS V12.07,2013-05-25 10:36:00,
2013-05-25 06:41:00,53.3,43.7,30.22,NNW,348,21.1,21.1,70,0.00, ,,-99.99,VWS V12.07,2013-05-25 10:41:00,
2013-05-25 06:46:00,52.9,44.6,30.23,North,358,10.9,21.6,73,0.00, ,,-99.99,VWS V12.07,2013-05-25 10:46:00,
2013-05-25 06:51:00,53.1,43.9,30.23,North,358,17.6,21.6,71,0.00, ,,-99.99,VWS V12.07,2013-05-25 10:51:00,
2013-05-25 06:56:00,53.0,44.3,30.23,NNW,329,12.6,13.7,72,0.00, ,,-99.99,VWS V12.07,2013-05-25 10:56:00,
2013-05-25 07:01:00,53.0,43.9,30.23,NNW,344,13.7,23.5,71,0.00, ,,-99.99,VWS V12.07,2013-05-25 11:01:00,
2013-05-25 07:06:00,53.1,44.4,30.23,NNW,333,18.5,23.5,72,0.00, ,,-99.99,VWS V12.07,2013-05-25 11:06:00,
2013-05-25 07:11:00,53.2,44.0,30.23,North,8,17.1,23.5,71,0.00, ,,-99.99,VWS V12.07,2013-05-25 11:11:00,
2013-05-25 07:16:00,53.1,44.8,30.24,North,353,10.3,10.3,73,0.00, ,,-99.99,VWS V12.07,2013-05-25 11:16:00,
2013-05-25 07:21:00,53.1,43.2,30.23,NE,55,14.2,21.4,69,0.00, ,,-99.99,VWS V12.07,2013-05-25 11:21:00,
2013-05-25 07:26:00,53.1,43.4,30.24,WNW,302,17.8,23.2,69,0.00, ,,-99.99,VWS V12.07,2013-05-25 11:26:00,
2013-05-25 07:31:00,53.2,43.9,30.24,NNW,343,16.0,23.2,71,0.00, ,,-99.99,VWS V12.07,2013-05-25 11:31:00,
2013-05-25 07:36:00,53.0,43.3,30.24,NNW,340,14.0,14.9,70,0.00, ,,-99.99,VWS V12.07,2013-05-25 11:36:00,
2013-05-25 07:41:00,53.5,43.3,30.24,NNW,339,18.1,19.2,68,0.00, ,,-99.99,VWS V12.07,2013-05-25 11:41:00,
2013-05-25 07:46:00,53.3,43.8,30.24,NNW,343,14.2,19.4,70,0.00, ,,-99.99,VWS V12.07,2013-05-25 11:46:00,
2013-05-25 07:52:00,53.4,42.5,30.24,NNW,346,12.9,19.4,66,0.00, ,,-99.99,VWS V12.07,2013-05-25 11:52:00,
2013-05-25 07:57:00,53.6,42.3,30.24,NNW,336,14.4,20.9,66,0.00, ,,-99.99,VWS V12.07,2013-05-25 11:57:00,
2013-05-25 08:02:00,53.8,43.8,30.24,NNW,348,17.4,20.9,69,0.00, ,,-99.99,VWS V12.07,2013-05-25 12:02:00,
2013-05-25 08:07:00,53.6,42.4,30.24,North,355,17.9,20.9,66,0.00, ,,-99.99,VWS V12.07,2013-05-25 12:07:00,
2013-05-25 08:12:00,53.6,41.3,30.24,NNW,334,15.7,23.5,63,0.00, ,,-99.99,VWS V12.07,2013-05-25 12:12:00,
2013-05-25 08:18:00,53.6,41.0,30.24,NNE,18,12.7,19.5,62,0.00, ,,-99.99,VWS V12.07,2013-05-25 12:18:00,
2013-05-25 08:23:00,54.5,43.0,30.24,North,354,10.3,19.5,65,0.00, ,,-99.99,VWS V12.07,2013-05-25 12:23:00,
2013-05-25 08:28:00,54.1,40.7,30.24,NNW,336,10.9,21.1,60,0.00, ,,-99.99,VWS V12.07,2013-05-25 12:28:00,
2013-05-25 08:33:00,54.4,42.1,30.24,North,351,11.7,21.1,63,0.00, ,,-99.99,VWS V12.07,2013-05-25 12:33:00,
2013-05-25 08:38:00,54.1,41.3,30.24,NNW,343,10.9,19.6,62,0.00, ,,-99.99,VWS V12.07,2013-05-25 12:38:00,
2013-05-25 08:43:00,54.5,41.0,30.24,NNW,340,15.3,19.6,60,0.00, ,,-99.99,VWS V12.07,2013-05-25 12:43:00,
2013-05-25 08:48:00,54.2,40.7,30.25,North,350,9.9,19.6,60,0.00, ,,-99.99,VWS V12.07,2013-05-25 12:48:00,
2013-05-25 08:53:00,55.1,42.1,30.25,North,351,11.7,19.6,62,0.00, ,,-99.99,VWS V12.07,2013-05-25 12:53:00,
2013-05-25 08:58:00,55.2,42.1,30.25,NNW,329,12.4,16.7,61,0.00, ,,-99.99,VWS V12.07,2013-05-25 12:58:00,
2013-05-25 09:03:00,54.5,40.7,30.25,North,354,10.4,16.7,59,0.00, ,,-99.99,VWS V12.07,2013-05-25 13:03:00,
2013-05-25 09:08:00,55.1,42.1,30.25,North,355,9.9,16.7,62,0.00, ,,-99.99,VWS V12.07,2013-05-25 13:08:00,
2013-05-25 09:13:00,55.4,41.2,30.25,NNW,336,13.4,19.3,59,0.00, ,,-99.99,VWS V12.07,2013-05-25 13:13:00,
2013-05-25 09:18:00,55.1,40.7,30.25,NNW,330,16.8,18.6,58,0.00, ,,-99.99,VWS V12.07,2013-05-25 13:18:00,
2013-05-25 09:23:00,55.6,42.5,30.25,NNW,332,13.2,21.8,61,0.00, ,,-99.99,VWS V12.07,2013-05-25 13:23:00,
2013-05-25 09:28:00,55.8,41.1,30.26,NNW,341,8.7,21.8,58,0.00, ,,-99.99,VWS V12.07,2013-05-25 13:28:00,
2013-05-25 09:33:00,55.5,41.3,30.26,NNW,344,11.0,21.8,59,0.00, ,,-99.99,VWS V12.07,2013-05-25 13:33:00,
2013-05-25 09:38:00,56.1,41.8,30.26,NW,320,15.4,19.6,59,0.00, ,,-99.99,VWS V12.07,2013-05-25 13:38:00,
2013-05-25 09:43:00,56.5,42.1,30.26,North,360,12.8,20.8,58,0.00, ,,-99.99,VWS V12.07,2013-05-25 13:43:00,
2013-05-25 09:48:00,56.4,41.8,30.26,NNW,332,13.4,20.8,58,0.00, ,,-99.99,VWS V12.07,2013-05-25 13:48:00,
2013-05-25 09:53:00,56.3,41.0,30.26,North,351,6.8,20.8,56,0.00, ,,-99.99,VWS V12.07,2013-05-25 13:53:00,
2013-05-25 09:58:00,56.7,41.7,30.26,NNW,336,10.0,15.7,57,0.00, ,,-99.99,VWS V12.07,2013-05-25 13:58:00,
2013-05-25 10:03:00,57.2,42.5,30.26,NW,326,14.9,15.7,58,0.00, ,,-99.99,VWS V12.07,2013-05-25 14:03:00,
2013-05-25 10:08:00,57.1,40.6,30.25,NNW,333,8.0,15.7,54,0.00, ,,-99.99,VWS V12.07,2013-05-25 14:08:00,
2013-05-25 10:13:00,57.7,40.7,30.25,NW,308,6.3,15.7,53,0.00, ,,-99.99,VWS V12.07,2013-05-25 14:13:00,
2013-05-25 10:18:00,58.0,41.2,30.25,WNW,302,0.0,7.8,54,0.00, ,,-99.99,VWS V12.07,2013-05-25 14:18:00,
2013-05-25 10:23:00,57.7,40.8,30.25,NW,313,10.1,12.1,53,0.00, ,,-99.99,VWS V12.07,2013-05-25 14:23:00,
2013-05-25 10:28:00,58.2,40.7,30.26,NNW,333,8.9,14.0,52,0.00, ,,-99.99,VWS V12.07,2013-05-25 14:28:00,
2013-05-25 10:33:00,58.5,40.8,30.26,NNW,327,10.3,14.4,52,0.00, ,,-99.99,VWS V12.07,2013-05-25 14:33:00,
2013-05-25 10:38:00,59.0,40.6,30.26,NW,326,8.5,13.0,50,0.00, ,,-99.99,VWS V12.07,2013-05-25 14:38:00,
2013-05-25 10:43:00,59.7,42.7,30.26,NNW,330,6.5,13.0,53,0.00, ,,-99.99,VWS V12.07,2013-05-25 14:43:00,
2013-05-25 10:48:00,58.3,40.2,30.26,NW,306,14.2,18.1,51,0.00, ,,-99.99,VWS V12.07,2013-05-25 14:48:00,
2013-05-25 10:53:00,59.0,40.5,30.26,NNW,334,9.0,18.1,50,0.00, ,,-99.99,VWS V12.07,2013-05-25 14:53:00,
2013-05-25 10:58:00,59.3,40.3,30.26,NW,325,8.0,12.2,49,0.00, ,,-99.99,VWS V12.07,2013-05-25 14:58:00,
2013-05-25 11:03:00,59.2,41.1,30.26,NNW,329,7.5,16.9,51,0.00, ,,-99.99,VWS V12.07,2013-05-25 15:03:00,
2013-05-25 11:08:00,59.4,40.2,30.25,NW,306,9.5,16.9,49,0.00, ,,-99.99,VWS V12.07,2013-05-25 15:08:00,
2013-05-25 11:13:00,59.8,41.5,30.25,West,278,8.0,16.9,51,0.00, ,,-99.99,VWS V12.07,2013-05-25 15:13:00,
2013-05-25 11:18:00,60.1,41.0,30.25,WSW,257,6.0,12.8,49,0.00, ,,-99.99,VWS V12.07,2013-05-25 15:18:00,
2013-05-25 11:23:00,60.1,41.5,30.25,NNW,327,7.2,13.3,50,0.00, ,,-99.99,VWS V12.07,2013-05-25 15:23:00,
2013-05-25 11:28:00,60.3,39.7,30.25,West,280,14.2,17.3,46,0.00, ,,-99.99,VWS V12.07,2013-05-25 15:28:00,
2013-05-25 11:33:00,60.3,40.2,30.25,WNW,282,11.7,17.3,47,0.00, ,,-99.99,VWS V12.07,2013-05-25 15:33:00,
2013-05-25 11:38:00,60.4,40.3,30.24,NNW,330,7.6,17.7,47,0.00, ,,-99.99,VWS V12.07,2013-05-25 15:38:00,
2013-05-25 11:43:00,60.6,39.4,30.24,WNW,289,13.9,17.7,45,0.00, ,,-99.99,VWS V12.07,2013-05-25 15:43:00,
2013-05-25 11:48:00,60.4,39.0,30.24,WNW,296,14.5,19.1,45,0.00, ,,-99.99,VWS V12.07,2013-05-25 15:48:00,
2013-05-25 11:53:00,60.6,40.0,30.24,NW,318,18.9,19.3,46,0.00, ,,-99.99,VWS V12.07,2013-05-25 15:53:00,
2013-05-25 11:58:00,60.5,39.5,30.24,NW,312,12.1,20.1,46,0.00, ,,-99.99,VWS V12.07,2013-05-25 15:58:00,
2013-05-25 12:03:00,60.7,39.9,30.24,WNW,296,12.3,20.1,46,0.00, ,,-99.99,VWS V12.07,2013-05-25 16:03:00,
2013-05-25 12:08:00,61.1,39.5,30.24,NW,313,14.0,23.2,45,0.00, ,,-99.99,VWS V12.07,2013-05-25 16:08:00,
2013-05-25 12:13:00,61.0,40.4,30.24,NW,315,11.2,23.2,47,0.00, ,,-99.99,VWS V12.07,2013-05-25 16:13:00,
2013-05-25 12:18:00,61.9,40.4,30.24,WNW,285,7.8,14.3,45,0.00, ,,-99.99,VWS V12.07,2013-05-25 16:18:00,
2013-05-25 12:23:00,62.0,39.9,30.24,NW,316,15.6,22.3,44,0.00, ,,-99.99,VWS V12.07,2013-05-25 16:23:00,
2013-05-25 12:28:00,62.1,40.1,30.23,WNW,299,18.0,22.3,44,0.00, ,,-99.99,VWS V12.07,2013-05-25 16:28:00,
2013-05-25 12:33:00,62.2,40.7,30.23,NW,318,13.0,22.3,45,0.00, ,,-99.99,VWS V12.07,2013-05-25 16:33:00,
2013-05-25 12:38:00,62.4,41.8,30.23,NW,308,19.3,23.7,47,0.00, ,,-99.99,VWS V12.07,2013-05-25 16:38:00,
2013-05-25 12:43:00,62.9,42.1,30.23,NW,312,17.3,23.7,46,0.00, ,,-99.99,VWS V12.07,2013-05-25 16:43:00,
2013-05-25 12:48:00,63.0,39.9,30.23,NW,326,15.2,23.7,43,0.00, ,,-99.99,VWS V12.07,2013-05-25 16:48:00,
2013-05-25 12:53:00,63.1,40.9,30.23,NW,323,15.4,23.7,44,0.00, ,,-99.99,VWS V12.07,2013-05-25 16:53:00,
2013-05-25 12:58:00,64.3,42.8,30.23,NW,322,9.0,13.4,46,0.00, ,,-99.99,VWS V12.07,2013-05-25 16:58:00,
2013-05-25 13:03:00,64.8,43.4,30.22,WNW,298,11.4,19.9,46,0.00, ,,-99.99,VWS V12.07,2013-05-25 17:03:00,
2013-05-25 13:08:00,63.9,42.7,30.22,NNE,24,8.5,20.2,46,0.00, ,,-99.99,VWS V12.07,2013-05-25 17:08:00,
2013-05-25 13:13:00,64.7,41.5,30.21,NW,313,12.5,20.4,43,0.00, ,,-99.99,VWS V12.07,2013-05-25 17:13:00,
2013-05-25 13:18:00,64.8,42.8,30.21,WNW,301,9.2,15.6,45,0.00, ,,-99.99,VWS V12.07,2013-05-25 17:18:00,
2013-05-25 13:23:00,65.2,40.8,30.21,WSW,253,9.1,16.8,41,0.00, ,,-99.99,VWS V12.07,2013-05-25 17:23:00,
2013-05-25 13:28:00,65.2,41.0,30.20,NW,306,5.4,16.8,41,0.00, ,,-99.99,VWS V12.07,2013-05-25 17:28:00,
2013-05-25 13:33:00,66.1,40.8,30.20,WSW,247,6.9,16.8,40,0.00, ,,-99.99,VWS V12.07,2013-05-25 17:33:00,
2013-05-25 13:39:00,66.1,40.7,30.20,NNW,344,8.7,17.2,39,0.00, ,,-99.99,VWS V12.07,2013-05-25 17:39:00,
2013-05-25 13:44:00,65.1,40.5,30.20,North,2,8.3,20.3,40,0.00, ,,-99.99,VWS V12.07,2013-05-25 17:44:00,
2013-05-25 13:49:00,65.6,40.7,30.20,WNW,301,11.6,20.3,40,0.00, ,,-99.99,VWS V12.07,2013-05-25 17:49:00,
2013-05-25 13:54:00,66.0,41.7,30.20,NNW,333,9.0,20.3,41,0.00, ,,-99.99,VWS V12.07,2013-05-25 17:54:00,
2013-05-25 13:59:00,67.0,40.0,30.20,WNW,295,14.0,15.7,37,0.00, ,,-99.99,VWS V12.07,2013-05-25 17:59:00,
2013-05-25 14:04:00,67.1,40.9,30.19,West,274,10.2,15.7,38,0.00, ,,-99.99,VWS V12.07,2013-05-25 18:04:00,
2013-05-25 14:09:00,67.3,41.2,30.19,West,264,7.8,18.8,38,0.00, ,,-99.99,VWS V12.07,2013-05-25 18:09:00,
2013-05-25 14:14:00,67.2,42.0,30.19,West,267,7.0,18.8,40,0.00, ,,-99.99,VWS V12.07,2013-05-25 18:14:00,
2013-05-25 14:19:00,67.7,43.2,30.18,NW,313,7.3,11.7,41,0.00, ,,-99.99,VWS V12.07,2013-05-25 18:19:00,
2013-05-25 14:24:00,67.6,39.7,30.18,NW,313,10.8,18.5,36,0.00, ,,-99.99,VWS V12.07,2013-05-25 18:24:00,
2013-05-25 14:29:00,67.5,41.0,30.18,WNW,301,9.2,18.5,38,0.00, ,,-99.99,VWS V12.07,2013-05-25 18:29:00,
2013-05-25 14:34:00,68.1,40.7,30.18,WNW,284,8.6,18.5,37,0.00, ,,-99.99,VWS V12.07,2013-05-25 18:34:00,
2013-05-25 14:39:00,67.3,41.4,30.18,NNW,329,9.1,13.4,39,0.00, ,,-99.99,VWS V12.07,2013-05-25 18:39:00,
2013-05-25 14:44:00,67.3,40.2,30.18,West,265,9.0,19.2,37,0.00, ,,-99.99,VWS V12.07,2013-05-25 18:44:00,
2013-05-25 14:49:00,69.1,40.3,30.18,NW,319,10.5,19.2,35,0.00, ,,-99.99,VWS V12.07,2013-05-25 18:49:00,
2013-05-25 14:54:00,69.3,41.6,30.18,NW,310,15.2,19.2,36,0.00, ,,-99.99,VWS V12.07,2013-05-25 18:54:00,
2013-05-25 14:59:00,68.5,40.7,30.18,WNW,288,13.9,19.7,36,0.00, ,,-99.99,VWS V12.07,2013-05-25 18:59:00,
2013-05-25 15:04:00,68.5,41.6,30.18,NNW,340,12.2,19.7,38,0.00, ,,-99.99,VWS V12.07,2013-05-25 19:04:00,
2013-05-25 15:09:00,69.3,42.5,30.17,NW,315,12.5,19.7,38,0.00, ,,-99.99,VWS V12.07,2013-05-25 19:09:00,
2013-05-25 15:14:00,68.9,39.2,30.17,NW,312,14.0,19.7,34,0.00, ,,-99.99,VWS V12.07,2013-05-25 19:14:00,
2013-05-25 15:19:00,69.0,40.0,30.17,WNW,302,13.9,21.6,35,0.00, ,,-99.99,VWS V12.07,2013-05-25 19:19:00,
2013-05-25 15:24:00,68.8,39.8,30.16,NNW,327,12.6,21.7,35,0.00, ,,-99.99,VWS V12.07,2013-05-25 19:24:00,
2013-05-25 15:29:00,68.8,40.6,30.16,NNW,327,9.5,21.7,36,0.00, ,,-99.99,VWS V12.07,2013-05-25 19:29:00,
2013-05-25 15:34:00,69.6,40.8,30.16,NNW,332,11.6,21.7,35,0.00, ,,-99.99,VWS V12.07,2013-05-25 19:34:00,
2013-05-25 15:39:00,69.3,41.7,30.16,NW,319,14.5,17.3,37,0.00, ,,-99.99,VWS V12.07,2013-05-25 19:39:00,
2013-05-25 15:44:00,70.0,42.3,30.16,NW,310,8.6,20.2,37,0.00, ,,-99.99,VWS V12.07,2013-05-25 19:44:00,
2013-05-25 15:49:00,71.0,41.2,30.15,NW,305,11.6,20.2,34,0.00, ,,-99.99,VWS V12.07,2013-05-25 19:49:00,
2013-05-25 15:54:00,70.6,41.5,30.15,WNW,292,7.0,20.2,35,0.00, ,,-99.99,VWS V12.07,2013-05-25 19:54:00,
2013-05-25 15:59:00,70.6,38.9,30.15,WNW,299,16.7,20.7,32,0.00, ,,-99.99,VWS V12.07,2013-05-25 19:59:00,
2013-05-25 16:04:00,71.1,40.0,30.15,WNW,288,13.5,20.7,32,0.00, ,,-99.99,VWS V12.07,2013-05-25 20:04:00,
2013-05-25 16:09:00,70.5,38.9,30.15,NW,316,14.5,20.7,32,0.00, ,,-99.99,VWS V12.07,2013-05-25 20:09:00,
2013-05-25 16:14:00,70.2,41.0,30.15,NW,312,12.4,20.7,35,0.00, ,,-99.99,VWS V12.07,2013-05-25 20:14:00,
2013-05-25 16:19:00,70.6,40.6,30.15,NW,325,11.6,21.0,34,0.00, ,,-99.99,VWS V12.07,2013-05-25 20:19:00,
2013-05-25 16:24:00,70.8,40.8,30.15,NW,320,9.5,21.0,34,0.00, ,,-99.99,VWS V12.07,2013-05-25 20:24:00,
2013-05-25 16:29:00,70.4,39.2,30.15,NW,315,13.0,21.0,32,0.00, ,,-99.99,VWS V12.07,2013-05-25 20:29:00,
2013-05-25 16:34:00,70.7,39.7,30.15,West,267,12.5,21.0,32,0.00, ,,-99.99,VWS V12.07,2013-05-25 20:34:00,
2013-05-25 16:39:00,70.4,40.0,30.14,WNW,292,9.4,16.3,33,0.00, ,,-99.99,VWS V12.07,2013-05-25 20:39:00,
2013-05-25 16:44:00,70.4,39.9,30.14,NW,308,13.2,16.3,33,0.00, ,,-99.99,VWS V12.07,2013-05-25 20:44:00,
2013-05-25 16:49:00,71.3,41.7,30.14,NW,322,11.9,18.4,34,0.00, ,,-99.99,VWS V12.07,2013-05-25 20:49:00,
2013-05-25 16:54:00,71.3,42.3,30.14,NNW,327,18.4,19.6,35,0.00, ,,-99.99,VWS V12.07,2013-05-25 20:54:00,
2013-05-25 16:59:00,69.8,42.9,30.14,NW,310,7.2,15.5,38,0.00, ,,-99.99,VWS V12.07,2013-05-25 20:59:00,
2013-05-25 17:04:00,71.3,40.7,30.14,West,265,8.5,15.5,33,0.00, ,,-99.99,VWS V12.07,2013-05-25 21:04:00,
2013-05-25 17:09:00,70.8,41.6,30.14,NNW,330,12.1,17.1,35,0.00, ,,-99.99,VWS V12.07,2013-05-25 21:09:00,
2013-05-25 17:14:00,71.5,40.0,30.14,WNW,301,13.9,17.3,32,0.00, ,,-99.99,VWS V12.07,2013-05-25 21:14:00,
2013-05-25 17:19:00,70.8,41.4,30.14,NNW,330,6.3,14.3,34,0.00, ,,-99.99,VWS V12.07,2013-05-25 21:19:00,
2013-05-25 17:24:00,71.2,42.6,30.15,NNW,332,8.6,14.3,36,0.00, ,,-99.99,VWS V12.07,2013-05-25 21:24:00,
2013-05-25 17:29:00,69.9,41.0,30.15,WNW,299,10.4,15.1,35,0.00, ,,-99.99,VWS V12.07,2013-05-25 21:29:00,
2013-05-25 17:34:00,71.2,46.5,30.15,NW,313,8.0,18.0,41,0.00, ,,-99.99,VWS V12.07,2013-05-25 21:34:00,
2013-05-25 17:39:00,71.3,44.5,30.15,NNW,343,11.6,12.6,38,0.00, ,,-99.99,VWS V12.07,2013-05-25 21:39:00,
2013-05-25 17:44:00,69.2,43.9,30.15,NNW,346,10.9,15.8,40,0.00, ,,-99.99,VWS V12.07,2013-05-25 21:44:00,
2013-05-25 17:49:00,69.6,45.3,30.15,NNW,330,14.3,15.8,42,0.00, ,,-99.99,VWS V12.07,2013-05-25 21:49:00,
2013-05-25 17:54:00,69.8,40.8,30.15,NNW,330,8.0,16.8,35,0.00, ,,-99.99,VWS V12.07,2013-05-25 21:54:00,
2013-05-25 17:59:00,70.1,43.5,30.15,NNW,333,9.9,14.5,38,0.00, ,,-99.99,VWS V12.07,2013-05-25 21:59:00,
2013-05-25 18:04:00,70.5,43.8,30.15,NNW,339,12.6,14.9,38,0.00, ,,-99.99,VWS V12.07,2013-05-25 22:04:00,
2013-05-25 18:09:00,70.3,44.1,30.15,NNW,346,8.6,14.9,39,0.00, ,,-99.99,VWS V12.07,2013-05-25 22:09:00,
2013-05-25 18:14:00,70.7,45.9,30.15,NNW,339,8.5,14.9,41,0.00, ,,-99.99,VWS V12.07,2013-05-25 22:14:00,
2013-05-25 18:19:00,71.0,43.9,30.15,NNW,334,8.6,10.5,38,0.00, ,,-99.99,VWS V12.07,2013-05-25 22:19:00,
2013-05-25 18:24:00,71.2,43.6,30.15,NNW,334,9.6,12.1,37,0.00, ,,-99.99,VWS V12.07,2013-05-25 22:24:00,
2013-05-25 18:29:00,69.5,44.0,30.15,North,357,9.4,14.2,40,0.00, ,,-99.99,VWS V12.07,2013-05-25 22:29:00,
2013-05-25 18:34:00,70.3,45.2,30.16,NNW,343,11.7,15.6,40,0.00, ,,-99.99,VWS V12.07,2013-05-25 22:34:00,
2013-05-25 18:39:00,70.3,45.6,30.15,North,360,11.7,12.1,41,0.00, ,,-99.99,VWS V12.07,2013-05-25 22:39:00,
2013-05-25 18:44:00,70.0,46.7,30.16,North,354,8.8,15.0,43,0.00, ,,-99.99,VWS V12.07,2013-05-25 22:44:00,
2013-05-25 18:49:00,69.5,45.3,30.16,NNW,346,12.4,16.2,42,0.00, ,,-99.99,VWS V12.07,2013-05-25 22:49:00,
2013-05-25 18:54:00,69.9,46.7,30.16,North,357,9.6,16.2,44,0.00, ,,-99.99,VWS V12.07,2013-05-25 22:54:00,
2013-05-25 18:59:00,69.6,45.7,30.16,NNW,329,9.9,15.7,42,0.00, ,,-99.99,VWS V12.07,2013-05-25 22:59:00,
2013-05-25 19:04:00,69.2,45.4,30.16,NNW,343,11.7,15.7,42,0.00, ,,-99.99,VWS V12.07,2013-05-25 23:04:00,
2013-05-25 19:09:00,70.0,46.9,30.16,NW,313,10.6,15.7,44,0.00, ,,-99.99,VWS V12.07,2013-05-25 23:09:00,
2013-05-25 19:14:00,69.1,45.3,30.17,North,355,9.1,15.8,42,0.00, ,,-99.99,VWS V12.07,2013-05-25 23:14:00,
2013-05-25 19:19:00,69.0,47.4,30.17,NNW,336,12.2,13.9,46,0.00, ,,-99.99,VWS V12.07,2013-05-25 23:19:00,
2013-05-25 19:24:00,68.7,44.5,30.17,NNW,334,13.6,15.7,42,0.00, ,,-99.99,VWS V12.07,2013-05-25 23:24:00,
2013-05-25 19:29:00,68.7,47.0,30.17,WNW,296,8.9,15.7,46,0.00, ,,-99.99,VWS V12.07,2013-05-25 23:29:00,
2013-05-25 19:34:00,68.8,46.7,30.17,NNW,344,8.7,15.7,45,0.00, ,,-99.99,VWS V12.07,2013-05-25 23:34:00,
2013-05-25 19:39:00,68.8,47.0,30.17,NNW,344,11.1,11.4,46,0.00, ,,-99.99,VWS V12.07,2013-05-25 23:39:00,
2013-05-25 19:44:00,68.7,47.0,30.18,NNW,327,8.4,11.4,46,0.00, ,,-99.99,VWS V12.07,2013-05-25 23:44:00,
2013-05-25 19:49:00,69.3,47.8,30.18,NNW,344,6.3,11.4,46,0.00, ,,-99.99,VWS V12.07,2013-05-25 23:49:00,
2013-05-25 19:54:00,68.8,47.5,30.18,NNW,339,8.3,11.7,46,0.00, ,,-99.99,VWS V12.07,2013-05-25 23:54:00,
2013-05-25 19:59:00,68.9,47.6,30.18,NW,312,4.2,8.7,46,0.00, ,,-99.99,VWS V12.07,2013-05-25 23:59:00,
2013-05-25 20:05:00,68.5,47.9,30.18,North,355,5.3,8.7,48,0.00, ,,-99.99,VWS V12.07,2013-05-26 00:05:00,
2013-05-25 20:10:00,68.4,48.5,30.18,North,353,7.1,8.7,49,0.00, ,,-99.99,VWS V12.07,2013-05-26 00:10:00,
2013-05-25 20:15:00,68.0,47.7,30.18,NNW,347,6.8,8.7,48,0.00, ,,-99.99,VWS V12.07,2013-05-26 00:15:00,
2013-05-25 20:20:00,68.3,49.0,30.18,NW,310,5.6,7.0,50,0.00, ,,-99.99,VWS V12.07,2013-05-26 00:20:00,
2013-05-25 20:25:00,67.8,48.4,30.19,North,7,0.0,7.0,50,0.00, ,,-99.99,VWS V12.07,2013-05-26 00:25:00,
2013-05-25 20:30:00,68.5,49.5,30.18,North,7,0.0,7.0,51,0.00, ,,-99.99,VWS V12.07,2013-05-26 00:30:00,
2013-05-25 20:35:00,68.7,49.0,30.18,North,7,0.0,7.0,49,0.00, ,,-99.99,VWS V12.07,2013-05-26 00:35:00,
2013-05-25 20:40:00,68.3,49.0,30.18,North,7,0.0,0.0,50,0.00, ,,-99.99,VWS V12.07,2013-05-26 00:40:00,
2013-05-25 20:45:00,68.2,49.5,30.18,North,7,0.0,0.0,51,0.00, ,,-99.99,VWS V12.07,2013-05-26 00:45:00,
2013-05-25 20:50:00,68.3,49.4,30.18,North,7,0.0,0.0,51,0.00, ,,-99.99,VWS V12.07,2013-05-26 00:50:00,
2013-05-25 20:55:00,67.0,48.8,30.19,North,7,0.0,0.0,52,0.00, ,,-99.99,VWS V12.07,2013-05-26 00:55:00,
2013-05-25 21:00:00,68.3,52.0,30.19,North,7,0.0,0.0,56,0.00, ,,-99.99,VWS V12.07,2013-05-26 01:00:00,
2013-05-25 21:05:00,68.2,51.6,30.19,North,7,0.0,0.0,55,0.00, ,,-99.99,VWS V12.07,2013-05-26 01:05:00,
2013-05-25 21:10:00,66.7,49.8,30.19,North,7,0.0,0.0,54,0.00, ,,-99.99,VWS V12.07,2013-05-26 01:10:00,
2013-05-25 21:15:00,67.7,49.7,30.19,North,7,0.0,0.0,52,0.00, ,,-99.99,VWS V12.07,2013-05-26 01:15:00,
2013-05-25 21:20:00,66.3,48.2,30.19,North,7,0.0,0.0,52,0.00, ,,-99.99,VWS V12.07,2013-05-26 01:20:00,
2013-05-25 21:25:00,67.4,49.2,30.19,North,7,0.0,0.0,52,0.00, ,,-99.99,VWS V12.07,2013-05-26 01:25:00,
2013-05-25 21:30:00,67.7,48.7,30.19,North,7,0.0,0.0,50,0.00, ,,-99.99,VWS V12.07,2013-05-26 01:30:00,
2013-05-25 21:35:00,66.5,48.6,30.19,North,7,0.0,0.0,52,0.00, ,,-99.99,VWS V12.07,2013-05-26 01:35:00,
2013-05-25 21:40:00,67.1,49.4,30.19,North,7,0.0,0.0,53,0.00, ,,-99.99,VWS V12.07,2013-05-26 01:40:00,
2013-05-25 21:45:00,67.7,50.2,30.19,North,7,0.0,0.0,54,0.00, ,,-99.99,VWS V12.07,2013-05-26 01:45:00,
2013-05-25 21:50:00,68.2,51.3,30.19,North,7,0.0,0.0,55,0.00, ,,-99.99,VWS V12.07,2013-05-26 01:50:00,
2013-05-25 21:55:00,68.2,50.8,30.19,North,7,0.0,0.0,54,0.00, ,,-99.99,VWS V12.07,2013-05-26 01:55:00,
2013-05-25 22:00:00,67.8,50.1,30.20,North,7,0.0,0.0,53,0.00, ,,-99.99,VWS V12.07,2013-05-26 02:00:00,
2013-05-25 22:05:00,67.4,49.6,30.20,North,7,0.0,0.0,53,0.00, ,,-99.99,VWS V12.07,2013-05-26 02:05:00,
2013-05-25 22:10:00,66.5,49.7,30.20,North,7,0.0,0.0,55,0.00, ,,-99.99,VWS V12.07,2013-05-26 02:10:00,
2013-05-25 22:15:00,67.7,51.3,30.20,North,7,0.0,0.0,56,0.00, ,,-99.99,VWS V12.07,2013-05-26 02:15:00,
2013-05-25 22:20:00,67.3,51.8,30.20,SSE,159,5.1,5.3,58,0.00, ,,-99.99,VWS V12.07,2013-05-26 02:20:00,
2013-05-25 22:25:00,66.9,50.1,30.20,SSW,211,3.4,5.3,55,0.00, ,,-99.99,VWS V12.07,2013-05-26 02:25:00,
2013-05-25 22:30:00,67.0,49.7,30.20,South,184,4.7,6.2,54,0.00, ,,-99.99,VWS V12.07,2013-05-26 02:30:00,
2013-05-25 22:35:00,67.0,51.1,30.20,SSE,163,4.9,6.5,57,0.00, ,,-99.99,VWS V12.07,2013-05-26 02:35:00,
2013-05-25 22:40:00,66.8,51.6,30.20,SSE,153,6.2,7.0,58,0.00, ,,-99.99,VWS V12.07,2013-05-26 02:40:00,
2013-05-25 22:45:00,66.2,51.2,30.20,South,187,5.7,7.0,58,0.00, ,,-99.99,VWS V12.07,2013-05-26 02:45:00,
2013-05-25 22:50:00,66.4,51.0,30.20,SSW,201,7.6,7.6,58,0.00, ,,-99.99,VWS V12.07,2013-05-26 02:50:00,
2013-05-25 22:55:00,66.4,50.2,30.20,South,185,6.4,7.8,56,0.00, ,,-99.99,VWS V12.07,2013-05-26 02:55:00,
2013-05-25 23:00:00,66.8,50.9,30.20,SSE,168,5.5,8.0,57,0.00, ,,-99.99,VWS V12.07,2013-05-26 03:00:00,
2013-05-25 23:05:00,66.7,51.2,30.20,SSE,163,3.2,8.0,58,0.00, ,,-99.99,VWS V12.07,2013-05-26 03:05:00,
2013-05-25 23:10:00,66.3,50.7,30.20,South,182,4.4,8.0,57,0.00, ,,-99.99,VWS V12.07,2013-05-26 03:10:00,
2013-05-25 23:15:00,67.0,51.0,30.20,SSE,159,6.2,8.0,56,0.00, ,,-99.99,VWS V12.07,2013-05-26 03:15:00,
2013-05-25 23:20:00,66.9,51.4,30.20,South,178,4.8,6.6,58,0.00, ,,-99.99,VWS V12.07,2013-05-26 03:20:00,
2013-05-25 23:25:00,66.7,52.2,30.20,South,181,7.2,7.5,60,0.00, ,,-99.99,VWS V12.07,2013-05-26 03:25:00,
2013-05-25 23:30:00,66.7,51.9,30.20,South,178,6.5,7.9,59,0.00, ,,-99.99,VWS V12.07,2013-05-26 03:30:00,
2013-05-25 23:35:00,66.4,51.6,30.20,South,171,3.2,7.9,59,0.00, ,,-99.99,VWS V12.07,2013-05-26 03:35:00,
2013-05-25 23:40:00,65.8,51.2,30.20,SSW,195,6.3,7.6,59,0.00, ,,-99.99,VWS V12.07,2013-05-26 03:40:00,
2013-05-25 23:45:00,67.1,51.8,30.20,South,171,6.0,7.8,58,0.00, ,,-99.99,VWS V12.07,2013-05-26 03:45:00,
2013-05-25 23:50:00,67.0,51.6,30.20,SSE,163,5.8,7.8,58,0.00, ,,-99.99,VWS V12.07,2013-05-26 03:50:00,
2013-05-25 23:55:00,66.8,51.8,30.20,South,178,6.1,7.8,59,0.00, ,,-99.99,VWS V12.07,2013-05-26 03:55:00,